createdAt,value
2019-01-06T00:02:23.017Z,102096.61
2019-01-06T00:05:22.266Z,102093.33
2019-01-06T00:08:18.371Z,102097.63
2019-01-06T00:11:14.997Z,102101.43
2019-01-06T00:14:20.479Z,102101.05
2019-01-06T00:17:22.906Z,102106.41
2019-01-06T00:20:13.125Z,102110.83
2019-01-06T00:23:10.224Z,102113.45
2019-01-06T00:25:53.791Z,102122.85
2019-01-06T00:28:46.940Z,102124.16
2019-01-06T00:31:39.819Z,102127.02
2019-01-06T00:34:37.660Z,102125.59
2019-01-06T00:37:46.236Z,102131.87
2019-01-06T00:40:39.199Z,102132.25
2019-01-06T00:43:21.541Z,102131.33
2019-01-06T00:46:24.094Z,102131.33
2019-01-06T00:49:14.192Z,102133.43
2019-01-06T00:52:05.089Z,102136.05
2019-01-06T00:55:01.031Z,102134.61
2019-01-06T00:57:50.219Z,102140.59
2019-01-06T01:00:33.594Z,102143.21
2019-01-06T01:03:34.580Z,102143.59
2019-01-06T01:06:23.422Z,102144.14
2019-01-06T01:09:31.602Z,102145.82
2019-01-06T01:12:24.020Z,102151.97
2019-01-06T01:15:14.123Z,102156.41
2019-01-06T01:18:04.353Z,102153.16
2019-01-06T01:20:54.595Z,102157.58
2019-01-06T01:23:54.086Z,102165.80
2019-01-06T01:26:48.275Z,102162.30
2019-01-06T01:29:34.976Z,102162.30
2019-01-06T01:32:24.116Z,102161.88
2019-01-06T01:35:16.647Z,102157.97
2019-01-06T01:38:15.753Z,102160.45
2019-01-06T01:41:05.986Z,102155.09
2019-01-06T01:43:54.677Z,102161.50
2019-01-06T01:46:50.608Z,102162.67
2019-01-06T01:49:39.698Z,102165.67
2019-01-06T01:52:35.913Z,102167.22
2019-01-06T01:55:27.021Z,102166.42
2019-01-06T01:58:24.928Z,102172.31
2019-01-06T02:01:12.681Z,102174.12
2019-01-06T02:04:02.864Z,102172.00
2019-01-06T02:07:08.108Z,102169.52
2019-01-06T02:10:10.038Z,102175.23
2019-01-06T02:13:06.195Z,102176.39
2019-01-06T02:15:55.118Z,102178.99
2019-01-06T02:18:38.389Z,102185.09
2019-01-06T02:21:27.339Z,102183.77
2019-01-06T02:24:20.241Z,102190.78
2019-01-06T02:27:13.155Z,102193.75
2019-01-06T02:30:12.443Z,102196.09
2019-01-06T02:33:14.780Z,102195.17
2019-01-06T02:36:13.992Z,102190.20
2019-01-06T02:39:04.206Z,102198.02
2019-01-06T02:41:54.469Z,102191.36
2019-01-06T02:44:44.732Z,102196.03
2019-01-06T02:47:33.921Z,102195.91
2019-01-06T02:50:31.705Z,102199.17
2019-01-06T02:53:37.380Z,102200.72
2019-01-06T02:56:30.535Z,102196.50
2019-01-06T02:59:30.054Z,102199.39
2019-01-06T03:02:19.052Z,102200.53
2019-01-06T03:05:21.235Z,102206.92
2019-01-06T03:08:01.107Z,102199.20
2019-01-06T03:10:51.376Z,102204.41
2019-01-06T03:13:40.385Z,102210.67
2019-01-06T03:16:39.588Z,102217.81
2019-01-06T03:19:32.534Z,102210.23
2019-01-06T03:22:21.259Z,102209.58
2019-01-06T03:25:11.397Z,102208.52
2019-01-06T03:28:07.048Z,102209.27
2019-01-06T03:30:56.228Z,102203.91
2019-01-06T03:34:01.494Z,102213.05
2019-01-06T03:36:50.570Z,102206.39
2019-01-06T03:39:52.974Z,102213.15
2019-01-06T03:42:48.894Z,102205.56
2019-01-06T03:45:48.995Z,102201.52
2019-01-06T03:48:54.303Z,102203.98
2019-01-06T03:51:36.039Z,102205.30
2019-01-06T03:54:26.182Z,102196.41
2019-01-06T03:57:14.947Z,102195.48
2019-01-06T04:00:03.777Z,102196.64
2019-01-06T04:02:52.964Z,102200.66
2019-01-06T04:05:41.906Z,102212.40
2019-01-06T04:08:41.356Z,102213.02
2019-01-06T04:11:43.709Z,102214.56
2019-01-06T04:14:30.249Z,102216.52
2019-01-06T04:17:29.644Z,102217.13
2019-01-06T04:20:25.791Z,102219.23
2019-01-06T04:23:11.262Z,102212.16
2019-01-06T04:26:07.883Z,102207.73
2019-01-06T04:29:04.243Z,102199.91
2019-01-06T04:32:00.192Z,102200.66
2019-01-06T04:35:05.415Z,102199.22
2019-01-06T04:37:54.530Z,102196.84
2019-01-06T04:40:47.734Z,102204.67
2019-01-06T04:43:40.641Z,102208.99
2019-01-06T04:46:29.383Z,102211.29
2019-01-06T04:49:22.616Z,102212.08
2019-01-06T04:52:11.689Z,102220.28
2019-01-06T04:55:13.728Z,102227.00
2019-01-06T04:58:02.768Z,102226.48
2019-01-06T05:01:01.932Z,102231.14
2019-01-06T05:03:50.852Z,102236.22
2019-01-06T05:06:59.658Z,102248.74
2019-01-06T05:09:49.791Z,102246.13
2019-01-06T05:12:40.994Z,102248.19
2019-01-06T05:15:29.996Z,102256.39
2019-01-06T05:18:18.811Z,102261.60
2019-01-06T05:21:12.043Z,102262.02
2019-01-06T05:24:13.042Z,102260.70
2019-01-06T05:27:01.773Z,102265.52
2019-01-06T05:29:50.665Z,102271.14
2019-01-06T05:32:39.696Z,102268.91
2019-01-06T05:35:32.666Z,102273.33
2019-01-06T05:38:32.109Z,102273.33
2019-01-06T05:41:18.749Z,102273.75
2019-01-06T05:44:21.377Z,102280.27
2019-01-06T05:47:29.917Z,102284.17
2019-01-06T05:50:18.749Z,102274.91
2019-01-06T05:53:07.536Z,102279.95
2019-01-06T05:55:46.768Z,102285.95
2019-01-06T05:58:28.701Z,102281.48
2019-01-06T06:01:23.218Z,102287.25
2019-01-06T06:04:29.151Z,102291.16
2019-01-06T06:07:18.049Z,102291.91
2019-01-06T06:10:10.986Z,102288.00
2019-01-06T06:13:07.348Z,102287.25
2019-01-06T06:16:03.709Z,102286.70
2019-01-06T06:18:59.683Z,102285.95
2019-01-06T06:21:55.635Z,102288.78
2019-01-06T06:24:58.135Z,102293.07
2019-01-06T06:27:57.232Z,102290.87
2019-01-06T06:30:42.234Z,102296.84
2019-01-06T06:33:32.440Z,102290.33
2019-01-06T06:36:37.966Z,102298.14
2019-01-06T06:39:28.392Z,102294.87
2019-01-06T06:42:30.730Z,102292.88
2019-01-06T06:45:17.356Z,102293.12
2019-01-06T06:48:13.504Z,102297.26
2019-01-06T06:51:25.582Z,102301.40
2019-01-06T06:54:14.509Z,102303.34
2019-01-06T06:57:46.572Z,102303.17
2019-01-06T07:01:14.810Z,102298.73
2019-01-06T07:04:05.250Z,102298.19
2019-01-06T07:06:58.136Z,102303.67
2019-01-06T07:09:57.762Z,102306.65
2019-01-06T07:12:53.696Z,102308.33
2019-01-06T07:15:42.771Z,102316.38
2019-01-06T07:18:58.135Z,102325.91
2019-01-06T07:21:48.285Z,102322.89
2019-01-06T07:24:44.424Z,102331.49
2019-01-06T07:27:33.284Z,102341.77
2019-01-06T07:30:41.724Z,102337.31
2019-01-06T07:33:21.007Z,102336.00
2019-01-06T07:36:11.052Z,102343.16
2019-01-06T07:39:09.968Z,102346.14
2019-01-06T07:42:06.185Z,102353.81
2019-01-06T07:44:59.390Z,102354.42
2019-01-06T07:47:48.576Z,102345.90
2019-01-06T07:50:37.497Z,102348.36
2019-01-06T07:53:42.938Z,102350.45
2019-01-06T07:56:31.832Z,102352.91
2019-01-06T07:59:12.772Z,102355.73
2019-01-06T08:02:03.005Z,102357.41
2019-01-06T08:04:56.298Z,102363.00
2019-01-06T08:07:58.704Z,102368.30
2019-01-06T08:10:47.773Z,102377.73
2019-01-06T08:13:44.209Z,102382.39
2019-01-06T08:16:37.173Z,102384.06
2019-01-06T08:19:26.059Z,102390.58
2019-01-06T08:22:18.969Z,102396.80
2019-01-06T08:25:18.331Z,102402.01
2019-01-06T08:28:23.927Z,102401.23
2019-01-06T08:31:10.856Z,102400.00
2019-01-06T08:33:59.679Z,102402.61
2019-01-06T08:36:52.559Z,102408.97
2019-01-06T08:39:41.764Z,102409.53
2019-01-06T08:42:45.581Z,102401.48
2019-01-06T08:45:41.910Z,102399.41
2019-01-06T08:48:31.304Z,102411.12
2019-01-06T08:51:21.135Z,102410.12
2019-01-06T08:54:08.542Z,102418.27
2019-01-06T08:57:17.187Z,102419.34
2019-01-06T09:00:13.136Z,102417.40
2019-01-06T09:03:03.036Z,102424.39
2019-01-06T09:05:53.797Z,102421.00
2019-01-06T09:08:56.079Z,102424.83
2019-01-06T09:11:58.145Z,102424.23
2019-01-06T09:14:47.097Z,102427.13
2019-01-06T09:17:42.212Z,102430.58
2019-01-06T09:20:31.170Z,102430.50
2019-01-06T09:23:27.297Z,102428.18
2019-01-06T09:26:26.759Z,102425.34
2019-01-06T09:29:35.391Z,102431.11
2019-01-06T09:32:40.711Z,102430.56
2019-01-06T09:35:31.156Z,102432.79
2019-01-06T09:38:24.401Z,102433.08
2019-01-06T09:41:13.351Z,102428.72
2019-01-06T09:44:06.220Z,102432.16
2019-01-06T09:47:14.756Z,102426.48
2019-01-06T09:50:02.875Z,102426.03
2019-01-06T09:52:53.032Z,102425.53
2019-01-06T09:55:46.647Z,102425.89
2019-01-06T09:58:42.607Z,102423.20
2019-01-06T10:01:31.339Z,102420.13
2019-01-06T10:04:35.034Z,102421.58
2019-01-06T10:07:24.185Z,102425.77
2019-01-06T10:10:11.539Z,102423.63
2019-01-06T10:13:04.563Z,102427.04
2019-01-06T10:15:53.799Z,102433.09
2019-01-06T10:18:49.799Z,102436.16
2019-01-06T10:21:48.962Z,102436.83
2019-01-06T10:24:36.896Z,102424.99
2019-01-06T10:27:33.437Z,102431.05
2019-01-06T10:30:14.523Z,102427.97
2019-01-06T10:33:04.786Z,102423.96
2019-01-06T10:35:56.115Z,102420.88
2019-01-06T10:38:49.767Z,102418.96
2019-01-06T10:41:42.837Z,102419.63
2019-01-06T10:44:31.827Z,102419.38
2019-01-06T10:47:27.453Z,102423.58
2019-01-06T10:50:20.412Z,102415.00
2019-01-06T10:53:13.425Z,102407.45
2019-01-06T10:55:59.555Z,102407.06
2019-01-06T10:58:43.851Z,102409.81
2019-01-06T11:01:40.265Z,102410.09
2019-01-06T11:04:39.199Z,102413.63
2019-01-06T11:07:25.524Z,102413.39
2019-01-06T11:10:15.814Z,102412.37
2019-01-06T11:13:03.768Z,102413.44
2019-01-06T11:15:59.721Z,102415.58
2019-01-06T11:18:55.919Z,102407.26
2019-01-06T11:21:46.156Z,102408.09
2019-01-06T11:24:45.381Z,102406.58
2019-01-06T11:27:41.520Z,102403.07
2019-01-06T11:30:30.838Z,102405.20
2019-01-06T11:33:15.101Z,102404.34
2019-01-06T11:36:07.194Z,102401.25
2019-01-06T11:38:56.242Z,102401.66
2019-01-06T11:41:45.164Z,102399.73
2019-01-06T11:44:28.422Z,102392.16
2019-01-06T11:47:21.596Z,102390.06
2019-01-06T11:50:03.194Z,102393.47
2019-01-06T11:52:55.826Z,102388.75
2019-01-06T11:55:45.173Z,102387.76
2019-01-06T11:58:28.014Z,102395.87
2019-01-06T12:01:30.004Z,102396.80
2019-01-06T12:04:19.088Z,102383.73
2019-01-06T12:07:18.773Z,102385.55
2019-01-06T12:10:12.002Z,102383.48
2019-01-06T12:13:05.861Z,102371.86
2019-01-06T12:15:59.847Z,102383.38
2019-01-06T12:18:50.465Z,102384.02
2019-01-06T12:21:39.449Z,102379.48
2019-01-06T12:24:44.827Z,102374.62
2019-01-06T12:27:43.895Z,102380.03
2019-01-06T12:30:32.744Z,102380.41
2019-01-06T12:33:21.506Z,102383.53
2019-01-06T12:36:10.258Z,102381.47
2019-01-06T12:39:09.584Z,102383.95
2019-01-06T12:42:17.947Z,102381.72
2019-01-06T12:45:11.202Z,102386.56
2019-01-06T12:48:07.413Z,102379.61
2019-01-06T12:50:52.339Z,102381.58
2019-01-06T12:53:42.462Z,102377.09
2019-01-06T12:56:41.550Z,102379.26
2019-01-06T12:59:40.531Z,102383.59
2019-01-06T13:02:33.518Z,102383.02
2019-01-06T13:05:39.083Z,102380.13
2019-01-06T13:08:27.854Z,102379.45
2019-01-06T13:11:18.163Z,102384.54
2019-01-06T13:14:07.135Z,102386.22
2019-01-06T13:17:07.076Z,102387.16
2019-01-06T13:19:56.178Z,102387.66
2019-01-06T13:23:04.513Z,102382.44
2019-01-06T13:25:52.447Z,102382.61
2019-01-06T13:28:41.590Z,102382.20
2019-01-06T13:31:40.883Z,102387.84
2019-01-06T13:34:29.721Z,102382.98
2019-01-06T13:37:23.020Z,102379.07
2019-01-06T13:40:09.069Z,102385.87
2019-01-06T13:42:59.223Z,102389.55
2019-01-06T13:46:04.639Z,102389.17
2019-01-06T13:48:53.762Z,102396.35
2019-01-06T13:52:03.132Z,102404.73
2019-01-06T13:55:03.665Z,102403.19
2019-01-06T13:58:12.367Z,102403.70
2019-01-06T14:01:11.768Z,102409.86
2019-01-06T14:04:00.984Z,102408.93
2019-01-06T14:06:58.507Z,102409.86
2019-01-06T14:09:47.247Z,102415.22
2019-01-06T14:12:35.742Z,102411.68
2019-01-06T14:15:24.548Z,102411.68
2019-01-06T14:18:13.691Z,102411.85
2019-01-06T14:21:19.016Z,102418.38
2019-01-06T14:24:05.888Z,102417.97
2019-01-06T14:26:58.622Z,102418.90
2019-01-06T14:29:47.454Z,102420.72
2019-01-06T14:32:36.364Z,102419.41
2019-01-06T14:35:27.577Z,102420.72
2019-01-06T14:38:36.223Z,102426.87
2019-01-06T14:41:35.319Z,102429.11
2019-01-06T14:44:19.672Z,102429.48
2019-01-06T14:47:15.685Z,102435.09
2019-01-06T14:50:08.899Z,102433.78
2019-01-06T14:52:57.659Z,102428.18
2019-01-06T14:55:50.799Z,102430.41
2019-01-06T14:58:39.662Z,102426.87
2019-01-06T15:01:30.708Z,102422.81
2019-01-06T15:04:19.678Z,102426.60
2019-01-06T15:07:25.210Z,102426.05
2019-01-06T15:10:21.631Z,102430.52
2019-01-06T15:13:26.950Z,102429.08
2019-01-06T15:16:35.612Z,102426.84
2019-01-06T15:19:35.859Z,102435.99
2019-01-06T15:22:24.989Z,102436.38
2019-01-06T15:25:15.259Z,102430.22
2019-01-06T15:28:03.758Z,102435.86
2019-01-06T15:31:00.132Z,102434.41
2019-01-06T15:33:53.275Z,102435.55
2019-01-06T15:36:52.402Z,102436.72
2019-01-06T15:39:54.789Z,102444.17
2019-01-06T15:42:44.514Z,102441.02
2019-01-06T15:45:40.560Z,102451.88
2019-01-06T15:48:29.521Z,102449.64
2019-01-06T15:51:31.770Z,102451.47
2019-01-06T15:54:21.907Z,102440.88
2019-01-06T15:57:23.952Z,102443.11
2019-01-06T16:00:12.932Z,102441.29
2019-01-06T16:03:04.029Z,102440.50
2019-01-06T16:05:54.180Z,102439.98
2019-01-06T16:08:37.238Z,102456.55
2019-01-06T16:11:26.477Z,102451.88
2019-01-06T16:14:15.360Z,102456.55
2019-01-06T16:17:08.543Z,102461.41
2019-01-06T16:19:57.795Z,102467.94
2019-01-06T16:22:47.934Z,102471.86
2019-01-06T16:25:45.862Z,102470.03
2019-01-06T16:28:38.894Z,102477.08
2019-01-06T16:31:44.526Z,102468.73
2019-01-06T16:34:43.995Z,102469.62
2019-01-06T16:37:28.477Z,102472.64
2019-01-06T16:40:24.623Z,102474.33
2019-01-06T16:43:13.973Z,102472.64
2019-01-06T16:46:04.086Z,102475.50
2019-01-06T16:49:09.028Z,102471.58
2019-01-06T16:51:57.760Z,102478.48
2019-01-06T16:54:47.915Z,102477.42
2019-01-06T16:57:38.101Z,102477.05
2019-01-06T17:00:27.377Z,102477.05
2019-01-06T17:03:23.666Z,102477.42
2019-01-06T17:06:26.131Z,102476.12
2019-01-06T17:09:15.137Z,102468.66
2019-01-06T17:12:12.263Z,102476.91
2019-01-06T17:15:17.876Z,102462.91
2019-01-06T17:18:14.053Z,102471.13
2019-01-06T17:21:12.929Z,102469.83
2019-01-06T17:24:03.133Z,102465.77
2019-01-06T17:26:52.150Z,102466.56
2019-01-06T17:29:53.638Z,102461.16
2019-01-06T17:32:43.820Z,102460.27
2019-01-06T17:35:32.960Z,102460.09
2019-01-06T17:38:29.497Z,102467.03
2019-01-06T17:41:19.933Z,102465.97
2019-01-06T17:44:02.990Z,102466.20
2019-01-06T17:47:08.269Z,102468.27
2019-01-06T17:49:57.521Z,102470.50
2019-01-06T17:52:47.703Z,102472.05
2019-01-06T17:55:53.071Z,102465.52
2019-01-06T17:58:49.506Z,102471.91
2019-01-06T18:01:45.182Z,102465.24
2019-01-06T18:04:50.397Z,102469.95
2019-01-06T18:07:40.709Z,102472.94
2019-01-06T18:10:29.736Z,102479.33
2019-01-06T18:13:30.607Z,102485.86
2019-01-06T18:16:15.246Z,102482.83
2019-01-06T18:19:05.438Z,102482.31
2019-01-06T18:21:58.899Z,102476.16
2019-01-06T18:24:47.869Z,102473.79
2019-01-06T18:27:37.020Z,102471.59
2019-01-06T18:30:26.984Z,102469.22
2019-01-06T18:33:26.486Z,102472.34
2019-01-06T18:36:15.482Z,102478.73
2019-01-06T18:39:05.723Z,102473.52
2019-01-06T18:41:54.950Z,102480.05
2019-01-06T18:44:43.836Z,102473.38
2019-01-06T18:47:49.119Z,102470.77
2019-01-06T18:50:38.079Z,102471.14
2019-01-06T18:53:31.209Z,102466.84
2019-01-06T18:56:16.763Z,102463.68
2019-01-06T18:59:06.923Z,102472.44
2019-01-06T19:01:59.977Z,102466.70
2019-01-06T19:04:53.252Z,102468.91
2019-01-06T19:07:46.579Z,102463.68
2019-01-06T19:10:39.745Z,102457.16
2019-01-06T19:13:45.137Z,102461.31
2019-01-06T19:16:38.470Z,102464.09
2019-01-06T19:19:27.547Z,102463.16
2019-01-06T19:22:16.598Z,102461.31
2019-01-06T19:25:23.724Z,102460.79
2019-01-06T19:28:13.254Z,102469.93
2019-01-06T19:31:01.956Z,102468.62
2019-01-06T19:33:46.226Z,102465.50
2019-01-06T19:36:42.354Z,102471.09
2019-01-06T19:39:41.528Z,102466.80
2019-01-06T19:42:31.360Z,102474.64
2019-01-06T19:45:22.366Z,102476.31
2019-01-06T19:48:21.723Z,102470.16
2019-01-06T19:51:14.784Z,102475.02
2019-01-06T19:54:08.348Z,102465.32
2019-01-06T19:56:57.743Z,102472.78
2019-01-06T19:59:46.763Z,102467.94
2019-01-06T20:02:39.976Z,102468.86
2019-01-06T20:05:48.325Z,102471.47
2019-01-06T20:08:56.852Z,102471.47
2019-01-06T20:11:53.203Z,102466.25
2019-01-06T20:14:42.095Z,102472.27
2019-01-06T20:17:31.467Z,102461.81
2019-01-06T20:20:22.345Z,102472.64
2019-01-06T20:23:18.164Z,102474.32
2019-01-06T20:26:14.704Z,102470.78
2019-01-06T20:29:03.499Z,102469.89
2019-01-06T20:32:02.559Z,102471.19
2019-01-06T20:34:50.393Z,102471.19
2019-01-06T20:37:40.504Z,102476.41
2019-01-06T20:40:30.693Z,102475.11
2019-01-06T20:43:20.193Z,102476.80
2019-01-06T20:46:10.677Z,102475.11
2019-01-06T20:49:00.932Z,102477.31
2019-01-06T20:52:03.141Z,102475.48
2019-01-06T20:55:07.535Z,102468.95
2019-01-06T20:57:52.535Z,102475.62
2019-01-06T21:00:37.671Z,102469.89
2019-01-06T21:03:33.773Z,102474.55
2019-01-06T21:06:30.118Z,102471.56
2019-01-06T21:09:19.429Z,102465.42
2019-01-06T21:12:18.926Z,102469.89
2019-01-06T21:15:09.351Z,102467.27
2019-01-06T21:17:58.580Z,102474.55
2019-01-06T21:20:45.519Z,102471.05
2019-01-06T21:23:33.075Z,102466.72
2019-01-06T21:26:22.068Z,102468.95
2019-01-06T21:29:15.033Z,102468.44
2019-01-06T21:32:03.540Z,102466.72
2019-01-06T21:34:55.558Z,102463.22
2019-01-06T21:37:44.907Z,102467.52
2019-01-06T21:40:34.005Z,102466.20
2019-01-06T21:43:31.869Z,102453.91
2019-01-06T21:46:40.549Z,102460.98
2019-01-06T21:49:33.696Z,102458.61
2019-01-06T21:52:23.818Z,102460.67
2019-01-06T21:55:13.982Z,102465.00
2019-01-06T21:58:03.145Z,102464.07
2019-01-06T22:01:02.066Z,102456.61
2019-01-06T22:03:58.204Z,102454.89
2019-01-06T22:06:51.356Z,102461.41
2019-01-06T22:09:59.606Z,102458.25
2019-01-06T22:12:49.457Z,102454.75
2019-01-06T22:15:38.565Z,102459.80
2019-01-06T22:18:27.671Z,102459.28
2019-01-06T22:21:36.251Z,102455.36
2019-01-06T22:24:39.678Z,102454.57
2019-01-06T22:27:36.923Z,102455.88
2019-01-06T22:30:36.464Z,102442.83
2019-01-06T22:33:44.757Z,102448.59
2019-01-06T22:36:45.114Z,102448.97
2019-01-06T22:39:35.017Z,102445.98
2019-01-06T22:42:29.886Z,102447.30
2019-01-06T22:45:32.188Z,102441.52
2019-01-06T22:48:22.394Z,102435.55
2019-01-06T22:51:18.403Z,102439.98
2019-01-06T22:54:27.172Z,102443.00
2019-01-06T22:57:17.352Z,102439.08
2019-01-06T23:00:11.703Z,102439.59
2019-01-06T23:03:02.571Z,102444.45
2019-01-06T23:05:52.731Z,102440.53
2019-01-06T23:08:48.229Z,102437.37
2019-01-06T23:11:52.229Z,102439.59
2019-01-06T23:14:33.155Z,102431.77
2019-01-06T23:17:33.231Z,102436.61
2019-01-06T23:20:24.431Z,102440.12
2019-01-06T23:23:14.620Z,102436.99
2019-01-06T23:26:23.139Z,102439.59
2019-01-06T23:29:13.363Z,102438.81
2019-01-06T23:31:57.139Z,102434.89
2019-01-06T23:34:44.896Z,102440.12
2019-01-06T23:37:33.720Z,102439.22
2019-01-06T23:40:37.983Z,102433.45
2019-01-06T23:43:29.396Z,102443.14
2019-01-06T23:46:28.597Z,102440.91
2019-01-06T23:49:24.852Z,102442.59
2019-01-06T23:52:13.693Z,102442.21
2019-01-06T23:55:02.498Z,102441.42
2019-01-06T23:57:55.550Z,102437.13
